KLAW Airport (Lawton-Fort Sill Rgnl) Information

FAA: LAW - ICAO: KLAW

KLAW Airport Location

State Oklahoma
County Comanche
City Lawton
KLAW Airport is 2 miles south of Lawton, OK.
Latitude 34-34-03.7720N
Longitude 098-24-59.8920W
Elevation 1,110ft

KLAW Airport METARs

METAR KLAW 071853Z 03007KT 5SM HZ BKN100 10/07 A3018 RMK AO2 SLP223 T01000072
Altimeter 30.18"
Temperature 10.0°C (50.0°F)
Wind 30° at 7KT
Clouds broken at 10,000ft
Visibility 5.0mi
Time observed: 2022-12-07T18:53:00Z

KLAW Airport Details

Status Operational
Activation December 1948
Ownership Public
Usage Public
Chart DALLAS-FT WORTH
ATC on-site Yes
Beacon schedule sunset-sunrise
Beacon color clear green

KLAW Airport Contacts

Owner CITY OF LAWTON
Owner address BOX 531, LAWTON, OK 73502
Owner phone 580-581-3301
Manager BETH HARKCOM
Manager address 8629 W. 600 RD., INOLA, OK 74036
Manager phone 918-543-2935

KLAW Airport (Lawton-Fort Sill Rgnl) Radio Frequencies

KLAW (Airport) Radio Frequencies

UNICOM 122.95
Common traffic advisory frequency (CTAF) 119.9